Time;durP1;ratioP1;P1;durP2;ratioP2;P2;SDS_P1;SDS_P2;PMS_P1;PMS_P2;Temp;Humidity;BMP_temperature;BMP_pressure;BME280_temperature;BME280_humidity;BME280_pressure;Samples;Min_cycle;Max_cycle;Signal;HPM_P1;HPM_P2
2022/12/25 00:00:05;;;;;;;27.95;7.88;;;6.90;89.50;;;;;;5052213;28;20248;-73
2022/12/25 00:02:33;;;;;;;21.67;7.68;;;6.90;89.40;;;;;;5052723;28;20057;-74
2022/12/25 00:05:00;;;;;;;24.42;8.38;;;6.90;89.50;;;;;;5052246;28;20107;-74
2022/12/25 00:07:27;;;;;;;22.10;7.53;;;6.90;89.50;;;;;;5066899;28;20060;-74
2022/12/25 00:09:54;;;;;;;19.93;6.83;;;6.90;89.50;;;;;;5051512;28;20127;-74
2022/12/25 00:12:22;;;;;;;19.05;6.85;;;6.90;89.60;;;;;;5061602;28;20276;-74
2022/12/25 00:14:49;;;;;;;18.92;7.13;;;6.90;89.50;;;;;;5062777;28;20481;-74
2022/12/25 00:17:17;;;;;;;16.40;6.93;;;6.80;89.50;;;;;;5053004;28;20148;-74
2022/12/25 00:19:46;;;;;;;19.13;6.72;;;6.80;89.50;;;;;;5036435;28;20076;-74
2022/12/25 00:22:13;;;;;;;21.57;6.63;;;6.80;89.50;;;;;;5071374;28;20081;-74
2022/12/25 00:24:40;;;;;;;23.05;7.10;;;6.80;89.60;;;;;;5071085;28;20290;-74
2022/12/25 00:27:07;;;;;;;21.35;7.28;;;6.80;89.60;;;;;;5053250;28;20115;-74
2022/12/25 00:29:34;;;;;;;23.80;7.05;;;6.80;89.60;;;;;;5052104;28;20048;-75
2022/12/25 00:32:01;;;;;;;22.73;7.18;;;6.80;89.60;;;;;;5052139;28;20136;-74
2022/12/25 00:34:32;;;;;;;24.97;7.53;;;6.80;89.70;;;;;;5070090;28;20048;-74
2022/12/25 00:37:01;;;;;;;17.13;6.90;;;6.80;89.70;;;;;;5086780;28;20251;-74
2022/12/25 00:39:28;;;;;;;18.65;6.32;;;6.80;89.70;;;;;;5051751;28;20132;-74
2022/12/25 00:44:43;;;;;;;21.55;7.32;;;6.80;89.70;;;;;;5064588;28;20126;-74
2022/12/25 00:47:12;;;;;;;27.43;8.13;;;6.80;89.70;;;;;;5051206;28;20466;-74
2022/12/25 00:49:39;;;;;;;22.55;7.60;;;6.80;89.70;;;;;;5035676;28;20304;-74
2022/12/25 00:52:09;;;;;;;21.92;7.88;;;6.80;89.70;;;;;;5050798;28;20057;-74
2022/12/25 00:54:37;;;;;;;22.08;6.93;;;6.80;89.80;;;;;;5046353;28;20051;-74
2022/12/25 00:57:04;;;;;;;18.95;6.80;;;6.90;89.80;;;;;;5070733;28;20111;-74
2022/12/25 00:59:32;;;;;;;21.50;7.60;;;6.80;89.70;;;;;;5070575;28;20056;-74
2022/12/25 01:02:22;;;;;;;24.80;7.68;;;6.90;89.70;;;;;;5070914;28;20256;-74
2022/12/25 01:04:47;;;;;;;19.65;7.30;;;6.90;89.80;;;;;;5039201;28;20057;-74
2022/12/25 01:07:16;;;;;;;27.25;8.63;;;6.90;89.70;;;;;;5053067;28;20620;-74
2022/12/25 01:12:29;;;;;;;19.97;7.33;;;6.90;89.90;;;;;;5052676;28;20533;-74
2022/12/25 01:14:56;;;;;;;22.63;7.72;;;6.90;89.90;;;;;;5044000;28;20281;-74
2022/12/25 01:17:23;;;;;;;23.75;6.97;;;6.80;90.00;;;;;;5015789;28;20073;-74
2022/12/25 01:19:51;;;;;;;18.80;6.97;;;6.80;90.00;;;;;;5032056;28;20053;-74
2022/12/25 01:22:19;;;;;;;21.40;7.75;;;6.80;90.00;;;;;;5051958;28;20053;-74
2022/12/25 01:24:46;;;;;;;17.40;6.97;;;6.80;90.00;;;;;;5052044;28;20053;-74
2022/12/25 01:27:15;;;;;;;19.80;6.97;;;6.80;90.00;;;;;;5052412;28;20244;-74
2022/12/25 01:29:42;;;;;;;21.20;8.23;;;6.80;90.00;;;;;;5070264;28;20526;-74
2022/12/25 01:32:09;;;;;;;22.05;7.07;;;6.80;90.00;;;;;;5025040;28;20069;-74
2022/12/25 01:34:36;;;;;;;22.80;7.50;;;6.90;90.00;;;;;;5067770;28;20053;-74
2022/12/25 01:37:04;;;;;;;20.50;7.03;;;6.80;90.00;;;;;;5070109;28;20469;-74
2022/12/25 01:39:33;;;;;;;25.98;7.18;;;6.80;90.00;;;;;;5047868;28;20260;-74
2022/12/25 01:42:00;;;;;;;19.67;6.43;;;6.90;90.10;;;;;;5069595;28;20136;-74
2022/12/25 01:45:05;;;;;;;25.77;7.88;;;6.90;90.10;;;;;;5043446;28;20048;-73
2022/12/25 01:47:32;;;;;;;24.10;7.28;;;6.90;90.20;;;;;;5054222;28;20053;-74
2022/12/25 01:49:59;;;;;;;23.57;7.70;;;6.90;90.20;;;;;;5034608;28;20141;-74
2022/12/25 01:52:26;;;;;;;21.40;6.68;;;7.00;90.40;;;;;;5052967;28;20240;-76
2022/12/25 01:54:59;;;;;;;25.63;7.20;;;7.00;90.40;;;;;;5039797;28;20061;-74
2022/12/25 01:57:30;;;;;;;17.40;6.60;;;7.00;90.40;;;;;;5062065;28;20139;-74
2022/12/25 01:59:59;;;;;;;18.75;6.78;;;7.00;90.40;;;;;;5069553;28;21082;-74
2022/12/25 02:02:27;;;;;;;18.70;6.63;;;7.00;90.50;;;;;;5051306;28;20049;-74
2022/12/25 02:05:00;;;;;;;22.85;6.60;;;7.00;90.50;;;;;;5054094;28;20435;-73
2022/12/25 02:07:29;;;;;;;16.52;6.15;;;7.00;90.50;;;;;;5040722;28;20529;-74
2022/12/25 02:09:58;;;;;;;27.33;7.28;;;7.10;90.60;;;;;;5034310;28;20119;-74
2022/12/25 02:12:26;;;;;;;21.35;6.78;;;7.20;90.80;;;;;;5035228;28;20574;-74
2022/12/25 02:14:57;;;;;;;24.37;7.77;;;7.20;90.90;;;;;;5049801;28;20048;-73
2022/12/25 02:17:31;;;;;;;17.90;6.30;;;7.20;90.90;;;;;;5052163;28;20295;-74
2022/12/25 02:20:24;;;;;;;20.98;6.47;;;7.20;91.10;;;;;;5069796;28;20057;-74
2022/12/25 02:23:04;;;;;;;27.80;7.83;;;7.30;91.20;;;;;;5051315;28;20041;-74
2022/12/25 02:25:48;;;;;;;22.70;6.45;;;7.30;91.20;;;;;;5051159;28;20056;-74
2022/12/25 02:28:21;;;;;;;22.37;7.27;;;7.40;91.30;;;;;;5069791;28;20055;-74
2022/12/25 02:30:53;;;;;;;25.02;7.03;;;7.40;91.50;;;;;;5069124;28;20260;-73
2022/12/25 02:36:20;;;;;;;26.17;7.35;;;7.50;91.40;;;;;;5050982;28;20049;-73
2022/12/25 02:41:43;;;;;;;17.97;7.27;;;7.50;91.60;;;;;;5031316;28;20045;-74
2022/12/25 03:07:04;;;;;;;21.30;6.00;;;7.80;91.70;;;;;;5053590;28;20045;-74
2022/12/25 03:12:29;;;;;;;19.52;6.65;;;7.80;91.70;;;;;;5030608;28;20245;-74
2022/12/25 03:17:43;;;;;;;19.83;6.10;;;7.80;91.70;;;;;;5064186;28;20529;-74
2022/12/25 03:28:28;;;;;;;21.73;6.82;;;7.80;91.70;;;;;;5050778;28;20107;-74
2022/12/25 03:31:13;;;;;;;20.60;6.05;;;7.80;91.80;;;;;;5068225;28;20065;-74
2022/12/25 04:37:57;;;;;;;23.83;6.68;;;8.10;92.00;;;;;;5053042;28;20057;-74
2022/12/25 04:40:26;;;;;;;22.30;7.85;;;8.20;91.90;;;;;;5052799;28;20178;-74
2022/12/25 04:42:54;;;;;;;22.65;7.40;;;8.20;92.00;;;;;;5043395;28;20522;-74
2022/12/25 04:45:21;;;;;;;18.27;6.87;;;8.20;92.00;;;;;;5033103;28;20129;-74
2022/12/25 04:47:48;;;;;;;21.67;7.80;;;8.20;92.10;;;;;;5016534;28;20288;-74
2022/12/25 04:50:15;;;;;;;24.15;9.13;;;8.30;92.20;;;;;;5032719;28;20065;-74
2022/12/25 04:52:42;;;;;;;27.52;9.45;;;8.30;92.20;;;;;;5022040;28;21024;-74
2022/12/25 04:55:11;;;;;;;30.88;9.70;;;8.30;92.20;;;;;;5044258;28;20073;-74
2022/12/25 04:57:39;;;;;;;26.17;8.83;;;8.30;92.30;;;;;;5047768;28;20053;-74
2022/12/25 05:00:08;;;;;;;23.30;8.25;;;8.30;92.30;;;;;;5052524;28;20532;-73
2022/12/25 05:02:35;;;;;;;28.58;9.38;;;8.40;92.30;;;;;;5032607;28;20055;-74
2022/12/25 05:05:02;;;;;;;27.30;10.55;;;8.40;92.40;;;;;;5041437;28;20519;-74
2022/12/25 05:07:29;;;;;;;26.20;9.35;;;8.40;92.50;;;;;;5057690;28;20173;-74
2022/12/25 05:09:57;;;;;;;34.27;11.80;;;8.40;92.50;;;;;;5059370;28;20574;-74
2022/12/25 05:12:24;;;;;;;32.15;10.02;;;8.40;92.60;;;;;;5051353;28;20410;-74
2022/12/25 05:14:52;;;;;;;33.65;10.52;;;8.50;92.70;;;;;;5051561;28;20059;-73
2022/12/25 05:17:20;;;;;;;28.85;9.93;;;8.50;92.80;;;;;;5050993;28;20055;-74
2022/12/25 05:19:47;;;;;;;30.02;10.77;;;8.50;92.80;;;;;;5050586;28;20045;-73
2022/12/25 05:22:14;;;;;;;32.27;11.10;;;8.50;92.70;;;;;;5061215;28;20050;-73
2022/12/25 05:24:41;;;;;;;26.33;9.20;;;8.50;92.80;;;;;;5061598;28;20331;-74
2022/12/25 05:27:08;;;;;;;26.65;10.20;;;8.50;92.80;;;;;;5039850;28;20077;-74
2022/12/25 05:29:35;;;;;;;30.38;10.13;;;8.50;92.80;;;;;;5049873;28;20125;-74
2022/12/25 05:32:04;;;;;;;31.95;10.15;;;8.60;92.80;;;;;;5032175;28;20137;-74
2022/12/25 05:34:31;;;;;;;29.10;10.37;;;8.60;92.90;;;;;;5035071;28;20045;-74
2022/12/25 05:36:59;;;;;;;23.58;9.30;;;8.60;93.00;;;;;;5032255;28;20282;-74
2022/12/25 05:39:26;;;;;;;31.40;9.52;;;8.60;93.00;;;;;;5032015;28;20058;-74
2022/12/25 05:41:57;;;;;;;21.38;8.82;;;8.60;93.00;;;;;;5032241;28;20049;-74
2022/12/25 05:44:24;;;;;;;24.30;11.00;;;8.60;92.90;;;;;;5047977;28;20068;-74
2022/12/25 05:46:52;;;;;;;26.27;9.87;;;8.60;93.00;;;;;;5031412;28;20124;-74
2022/12/25 05:49:20;;;;;;;27.75;10.32;;;8.60;93.00;;;;;;5014634;28;20273;-74
2022/12/25 05:52:12;;;;;;;31.58;11.65;;;8.60;93.10;;;;;;5032007;28;20148;-74
2022/12/25 05:54:40;;;;;;;30.05;11.20;;;8.60;93.10;;;;;;5022845;28;20046;-74
2022/12/25 05:57:07;;;;;;;25.90;11.15;;;8.60;93.10;;;;;;5056579;28;20096;-74
2022/12/25 05:59:34;;;;;;;26.77;9.77;;;8.60;93.10;;;;;;5041317;28;20136;-74
2022/12/25 06:02:02;;;;;;;27.70;11.18;;;8.70;93.00;;;;;;5040739;28;20272;-74
2022/12/25 06:04:32;;;;;;;28.98;10.77;;;8.70;93.10;;;;;;5057899;28;20041;-73
2022/12/25 06:06:59;;;;;;;26.02;11.13;;;8.70;93.20;;;;;;5033017;28;20049;-74
2022/12/25 06:09:26;;;;;;;23.77;9.68;;;8.70;93.10;;;;;;5031259;28;20079;-74
2022/12/25 06:11:53;;;;;;;26.60;11.37;;;8.70;93.10;;;;;;5049496;28;20124;-74
2022/12/25 06:14:20;;;;;;;29.52;11.15;;;8.80;93.20;;;;;;5049405;28;20375;-74
2022/12/25 06:16:51;;;;;;;26.45;10.10;;;8.80;93.30;;;;;;5055844;28;20063;-74
2022/12/25 06:19:18;;;;;;;29.50;10.95;;;8.80;93.20;;;;;;5039750;28;20048;-74
2022/12/25 06:21:46;;;;;;;23.70;9.57;;;8.80;93.20;;;;;;5051238;28;20144;-74
2022/12/25 06:24:14;;;;;;;24.10;10.30;;;8.80;93.20;;;;;;5051607;28;20045;-74
2022/12/25 06:26:41;;;;;;;23.90;9.82;;;8.80;93.20;;;;;;5051434;28;20343;-74
2022/12/25 06:29:08;;;;;;;23.63;9.95;;;8.80;93.20;;;;;;5049329;28;20079;-74
2022/12/25 06:31:36;;;;;;;22.67;10.35;;;8.90;93.20;;;;;;5031269;28;20053;-74
2022/12/25 06:34:07;;;;;;;22.75;9.55;;;8.90;93.20;;;;;;5030999;28;20060;-74
2022/12/25 06:36:34;;;;;;;23.03;10.17;;;8.90;93.20;;;;;;5023749;28;20100;-74
2022/12/25 06:39:03;;;;;;;21.85;8.52;;;8.90;93.20;;;;;;5030279;28;20257;-74
2022/12/25 06:41:31;;;;;;;22.95;9.45;;;8.90;93.20;;;;;;5048178;28;20057;-74
2022/12/25 06:43:59;;;;;;;21.33;9.10;;;8.90;93.20;;;;;;5030644;28;20630;-74
2022/12/25 06:46:27;;;;;;;22.23;9.15;;;8.90;93.10;;;;;;5043859;28;20156;-74
2022/12/25 06:48:55;;;;;;;21.40;8.43;;;8.90;93.20;;;;;;5027195;28;20091;-74
2022/12/25 06:51:30;;;;;;;19.27;8.95;;;8.90;93.20;;;;;;5031377;28;21280;-74
2022/12/25 06:54:01;;;;;;;19.63;8.38;;;8.90;93.20;;;;;;5032079;28;20053;-74
2022/12/25 06:56:31;;;;;;;18.02;7.90;;;8.90;93.20;;;;;;5029914;28;20049;-74
2022/12/25 06:59:00;;;;;;;24.13;8.80;;;8.90;93.20;;;;;;5014239;28;20064;-74
2022/12/25 07:01:30;;;;;;;17.63;7.47;;;9.00;93.20;;;;;;5031137;28;20048;-74
2022/12/25 07:03:59;;;;;;;24.33;8.63;;;9.00;93.20;;;;;;5049164;28;20303;-74
2022/12/25 07:06:29;;;;;;;17.55;8.40;;;9.00;93.10;;;;;;5031358;28;20148;-74
2022/12/25 07:08:56;;;;;;;20.00;9.15;;;9.00;93.10;;;;;;5030715;28;20054;-74
2022/12/25 07:11:23;;;;;;;18.35;7.68;;;9.00;93.00;;;;;;5048692;28;20074;-74
2022/12/25 07:13:52;;;;;;;19.57;7.50;;;9.00;93.10;;;;;;5047424;28;20042;-74
2022/12/25 07:16:19;;;;;;;17.10;7.60;;;9.00;93.00;;;;;;5030802;28;20284;-74
2022/12/25 07:18:46;;;;;;;16.80;7.55;;;8.90;93.00;;;;;;5030397;28;20125;-74
2022/12/25 07:21:15;;;;;;;18.33;8.05;;;9.00;93.00;;;;;;5029360;28;20132;-74
2022/12/25 07:23:44;;;;;;;17.35;7.00;;;8.90;93.00;;;;;;5047867;28;20133;-74
2022/12/25 07:26:12;;;;;;;17.07;7.20;;;8.90;93.00;;;;;;5030184;28;20071;-74
2022/12/25 07:28:39;;;;;;;17.83;7.10;;;8.90;93.00;;;;;;5048349;28;20616;-74
2022/12/25 07:31:13;;;;;;;15.73;7.85;;;8.90;93.00;;;;;;5028697;28;20152;-74
2022/12/25 07:33:40;;;;;;;18.00;7.57;;;8.90;93.00;;;;;;5046976;28;20579;-74
2022/12/25 07:36:10;;;;;;;17.75;7.03;;;9.00;92.90;;;;;;5028828;28;20063;-74
2022/12/25 07:38:37;;;;;;;16.83;7.43;;;9.00;93.00;;;;;;5047561;28;20160;-74
2022/12/25 07:41:07;;;;;;;14.18;6.50;;;8.90;93.00;;;;;;5056757;28;20264;-74
2022/12/25 07:43:34;;;;;;;19.98;7.72;;;9.00;92.90;;;;;;5049779;28;20122;-74
2022/12/25 07:46:02;;;;;;;13.20;6.80;;;9.00;92.90;;;;;;5071119;28;20168;-74
2022/12/25 07:48:30;;;;;;;12.68;6.03;;;8.90;92.90;;;;;;5024474;28;20129;-75
2022/12/25 07:50:58;;;;;;;15.00;6.57;;;8.90;92.80;;;;;;5014183;28;20152;-74
2022/12/25 07:53:25;;;;;;;12.77;5.72;;;8.90;92.80;;;;;;5029945;28;20254;-74
2022/12/25 07:55:59;;;;;;;14.95;6.60;;;8.90;92.80;;;;;;5048420;28;20058;-74
2022/12/25 07:58:27;;;;;;;14.90;5.80;;;9.00;92.80;;;;;;4981830;28;20058;-74
2022/12/25 08:00:54;;;;;;;16.15;5.93;;;9.00;92.80;;;;;;5028473;28;20046;-74
2022/12/25 08:03:21;;;;;;;14.17;5.90;;;9.00;92.70;;;;;;5024461;28;20045;-74
2022/12/25 08:05:49;;;;;;;13.85;5.38;;;9.00;92.70;;;;;;5048413;28;21057;-74
2022/12/25 08:08:19;;;;;;;12.05;5.15;;;8.90;92.60;;;;;;5022995;28;20049;-74
2022/12/25 08:10:47;;;;;;;11.90;5.30;;;8.90;92.60;;;;;;5032987;28;20466;-75
2022/12/25 08:13:14;;;;;;;11.68;5.22;;;8.90;92.60;;;;;;5031564;28;20686;-75
2022/12/25 08:15:42;;;;;;;13.37;5.90;;;8.90;92.60;;;;;;5031090;28;20103;-75
2022/12/25 08:18:09;;;;;;;13.02;5.30;;;8.90;92.60;;;;;;5049564;28;21069;-75
2022/12/25 08:20:36;;;;;;;11.68;5.63;;;8.90;92.60;;;;;;5030168;28;20144;-75
2022/12/25 08:23:05;;;;;;;13.70;4.85;;;8.90;92.60;;;;;;5031648;28;20132;-75
2022/12/25 08:25:33;;;;;;;12.30;5.47;;;8.90;92.60;;;;;;5031358;28;20194;-75
2022/12/25 08:28:01;;;;;;;14.70;5.10;;;8.90;92.60;;;;;;5025637;28;20056;-74
2022/12/25 08:30:28;;;;;;;9.40;4.78;;;9.00;92.60;;;;;;5032667;28;20273;-74
2022/12/25 08:32:55;;;;;;;14.27;5.30;;;8.90;92.50;;;;;;5054579;28;20134;-75
2022/12/25 08:35:22;;;;;;;11.07;5.10;;;9.00;92.50;;;;;;5037667;28;20052;-74
2022/12/25 08:37:49;;;;;;;14.18;5.38;;;9.00;92.60;;;;;;5046034;28;20131;-74
2022/12/25 08:40:18;;;;;;;10.97;4.63;;;9.00;92.50;;;;;;5046940;28;20123;-74
2022/12/25 08:42:47;;;;;;;13.75;4.70;;;8.90;92.50;;;;;;5030536;28;20264;-75
2022/12/25 08:45:14;;;;;;;15.20;5.53;;;8.90;92.50;;;;;;5047867;28;20045;-74
2022/12/25 08:47:41;;;;;;;13.00;5.35;;;9.00;92.40;;;;;;5051063;28;20073;-75
2022/12/25 08:50:09;;;;;;;10.80;4.88;;;8.90;92.40;;;;;;5042962;28;20056;-74
2022/12/25 08:52:36;;;;;;;10.47;4.23;;;8.90;92.40;;;;;;5050228;28;20060;-75
2022/12/25 08:55:04;;;;;;;10.05;4.30;;;9.00;92.40;;;;;;5033992;28;20405;-75
2022/12/25 08:57:32;;;;;;;12.65;4.97;;;9.00;92.30;;;;;;5049719;28;20894;-75
2022/12/25 08:59:59;;;;;;;12.88;4.47;;;8.90;92.30;;;;;;5027843;28;20045;-75
2022/12/25 09:02:26;;;;;;;10.15;4.75;;;9.00;92.30;;;;;;5026478;28;20139;-75
2022/12/25 09:04:53;;;;;;;11.67;4.43;;;8.90;92.20;;;;;;5048913;28;20095;-74
2022/12/25 09:07:20;;;;;;;13.38;4.50;;;8.90;92.20;;;;;;5032569;28;20367;-75
2022/12/25 09:09:47;;;;;;;9.60;4.15;;;8.90;92.20;;;;;;5043606;28;20045;-75
2022/12/25 09:12:14;;;;;;;9.57;4.35;;;8.90;92.20;;;;;;5009546;28;20441;-74
2022/12/25 09:14:49;;;;;;;13.07;5.13;;;8.90;92.10;;;;;;5046303;28;20141;-74
2022/12/25 09:17:16;;;;;;;9.30;4.80;;;8.90;92.20;;;;;;5023718;28;20046;-75
2022/12/25 09:19:46;;;;;;;10.25;4.57;;;8.90;92.20;;;;;;5027625;28;20396;-75
2022/12/25 09:22:13;;;;;;;11.10;4.75;;;9.00;92.10;;;;;;5029416;28;20137;-74
2022/12/25 09:24:42;;;;;;;12.52;4.47;;;8.90;92.20;;;;;;5048318;28;20135;-74
2022/12/25 09:27:09;;;;;;;10.63;4.20;;;9.00;92.10;;;;;;5031225;28;20053;-74
2022/12/25 09:29:37;;;;;;;10.80;4.57;;;9.00;92.20;;;;;;5030809;28;20046;-74
2022/12/25 09:32:07;;;;;;;8.98;4.03;;;9.00;92.10;;;;;;5030003;28;20273;-74
2022/12/25 09:34:34;;;;;;;8.93;4.20;;;9.00;92.20;;;;;;5048058;28;20057;-74
2022/12/25 09:37:02;;;;;;;12.00;4.47;;;9.00;92.10;;;;;;5029629;28;20045;-75
2022/12/25 09:39:29;;;;;;;13.18;4.80;;;9.00;92.10;;;;;;5031458;28;20144;-74
2022/12/25 09:42:00;;;;;;;10.33;4.10;;;9.00;92.10;;;;;;5028709;28;20511;-75
2022/12/25 09:44:30;;;;;;;12.05;4.78;;;9.00;92.10;;;;;;5046749;28;20304;-73
2022/12/25 09:47:00;;;;;;;10.60;4.60;;;9.00;92.00;;;;;;5048557;28;20083;-73
2022/12/25 09:49:37;;;;;;;10.30;4.15;;;9.00;92.00;;;;;;5028056;28;20061;-73
2022/12/25 09:52:09;;;;;;;9.40;4.32;;;9.00;92.00;;;;;;5029015;28;20080;-73
2022/12/25 09:54:41;;;;;;;12.20;4.53;;;9.00;92.00;;;;;;5046361;28;20415;-73
2022/12/25 09:57:11;;;;;;;9.55;4.20;;;9.00;92.00;;;;;;5029028;28;20793;-73
2022/12/25 09:59:39;;;;;;;11.52;4.80;;;9.00;92.00;;;;;;5049024;28;20049;-73
2022/12/25 10:02:50;;;;;;;10.60;4.43;;;9.10;91.90;;;;;;5045664;28;20089;-73
2022/12/25 10:05:43;;;;;;;8.60;3.92;;;9.10;91.90;;;;;;4984920;28;20497;-73
2022/12/25 10:08:19;;;;;;;9.07;4.17;;;9.10;91.90;;;;;;4983851;28;20141;-73
2022/12/25 10:10:52;;;;;;;9.13;4.25;;;9.10;91.90;;;;;;5010968;28;20291;-73
2022/12/25 10:13:50;;;;;;;8.95;4.28;;;9.10;91.80;;;;;;5028759;28;20124;-75
2022/12/25 10:16:29;;;;;;;14.45;4.40;;;9.10;91.90;;;;;;5044866;28;20153;-75
2022/12/25 10:19:16;;;;;;;10.98;3.67;;;9.20;91.80;;;;;;5028828;28;20780;-75
2022/12/25 10:21:46;;;;;;;8.77;4.37;;;9.20;91.80;;;;;;5032553;28;20136;-75
2022/12/25 10:24:25;;;;;;;9.35;3.75;;;9.20;91.80;;;;;;5030304;28;20249;-75
2022/12/25 10:26:56;;;;;;;10.25;4.15;;;9.20;91.70;;;;;;5027618;28;20064;-75
2022/12/25 10:29:23;;;;;;;10.40;3.83;;;9.20;91.70;;;;;;5059387;28;20206;-74
2022/12/25 10:31:53;;;;;;;11.85;4.22;;;9.20;91.60;;;;;;5034820;28;20041;-74
2022/12/25 10:34:21;;;;;;;10.33;3.90;;;9.20;91.70;;;;;;5039609;28;20132;-74
2022/12/25 10:36:50;;;;;;;8.35;3.60;;;9.20;91.70;;;;;;5032368;28;21292;-74
2022/12/25 10:39:19;;;;;;;11.27;4.07;;;9.20;91.70;;;;;;5034635;28;20061;-74
2022/12/25 10:42:13;;;;;;;12.10;4.28;;;9.20;91.60;;;;;;5056859;28;20055;-74
2022/12/25 10:44:40;;;;;;;8.60;3.67;;;9.20;91.50;;;;;;5012801;28;20058;-74
2022/12/25 10:47:07;;;;;;;9.83;3.80;;;9.20;91.50;;;;;;5042354;28;20176;-74
2022/12/25 10:49:36;;;;;;;11.55;4.53;;;9.20;91.50;;;;;;5066914;28;21006;-74
2022/12/25 10:52:20;;;;;;;9.82;4.32;;;9.20;91.50;;;;;;5049507;28;20049;-74
2022/12/25 10:54:47;;;;;;;8.85;4.00;;;9.20;91.50;;;;;;5050016;28;20568;-74
2022/12/25 10:57:16;;;;;;;9.55;4.07;;;9.20;91.50;;;;;;5040707;28;20053;-74
2022/12/25 10:59:46;;;;;;;11.53;3.73;;;9.20;91.40;;;;;;5005919;28;20527;-75
2022/12/25 11:02:18;;;;;;;11.32;4.40;;;9.30;91.40;;;;;;5025341;28;20363;-75
2022/12/25 11:04:46;;;;;;;7.57;3.60;;;9.30;91.40;;;;;;5024432;28;20053;-75
2022/12/25 11:07:22;;;;;;;12.43;3.90;;;9.30;91.40;;;;;;5010349;28;20045;-75
2022/12/25 11:09:51;;;;;;;8.98;4.07;;;9.30;91.40;;;;;;5025886;28;20038;-74
2022/12/25 11:12:20;;;;;;;8.87;3.50;;;9.40;91.30;;;;;;5029845;28;20835;-75
2022/12/25 11:15:00;;;;;;;10.05;4.03;;;9.40;91.40;;;;;;5041001;28;20857;-73
2022/12/25 11:17:28;;;;;;;9.15;3.20;;;9.40;91.40;;;;;;5037543;28;20126;-73
2022/12/25 11:19:56;;;;;;;9.30;3.95;;;9.40;91.50;;;;;;5023834;28;20159;-72
2022/12/25 11:22:25;;;;;;;10.80;3.90;;;9.40;91.50;;;;;;5030842;28;20132;-72
2022/12/25 11:24:53;;;;;;;10.63;4.40;;;9.40;91.50;;;;;;5035301;28;20041;-72
2022/12/25 11:27:26;;;;;;;9.27;4.28;;;9.40;91.60;;;;;;5040155;28;20296;-73
2022/12/25 11:29:57;;;;;;;11.73;3.90;;;9.40;91.60;;;;;;5058929;28;20050;-73
2022/12/25 11:32:29;;;;;;;11.55;3.92;;;9.40;91.60;;;;;;5061947;28;20080;-73
2022/12/25 11:34:58;;;;;;;8.80;3.72;;;9.40;91.70;;;;;;5037857;28;20056;-73
2022/12/25 11:37:34;;;;;;;9.00;3.77;;;9.40;91.70;;;;;;5029592;28;20053;-73
2022/12/25 11:40:02;;;;;;;8.68;4.03;;;9.40;91.70;;;;;;5052361;28;20285;-73
2022/12/25 11:42:34;;;;;;;7.40;3.90;;;9.40;91.80;;;;;;5046285;28;20064;-72
2022/12/25 11:45:04;;;;;;;9.77;4.00;;;9.40;91.80;;;;;;5041050;28;20047;-73
2022/12/25 11:47:37;;;;;;;10.20;4.10;;;9.40;91.80;;;;;;5039185;28;20179;-73
2022/12/25 11:50:19;;;;;;;9.17;4.47;;;9.40;91.90;;;;;;5041161;28;20124;-73
2022/12/25 11:52:48;;;;;;;8.57;4.35;;;9.40;91.90;;;;;;5062052;28;20315;-73
2022/12/25 11:55:19;;;;;;;9.05;4.30;;;9.50;91.90;;;;;;5032992;28;20038;-72
2022/12/25 11:57:52;;;;;;;10.40;4.63;;;9.50;92.00;;;;;;5056391;28;20053;-73
2022/12/25 12:00:20;;;;;;;9.95;4.30;;;9.50;92.00;;;;;;5042120;28;20053;-73
2022/12/25 12:02:54;;;;;;;11.27;4.57;;;9.50;92.10;;;;;;5025807;28;20057;-73
2022/12/25 12:05:26;;;;;;;7.97;4.20;;;9.50;92.10;;;;;;5030391;28;20298;-73
2022/12/25 12:07:59;;;;;;;9.40;4.70;;;9.50;92.10;;;;;;5028497;28;20112;-73
2022/12/25 12:10:37;;;;;;;8.38;4.22;;;9.60;92.10;;;;;;5028345;28;20072;-73
2022/12/25 12:13:22;;;;;;;10.05;4.75;;;9.60;92.10;;;;;;5026910;28;20069;-73
2022/12/25 12:15:50;;;;;;;11.73;5.17;;;9.60;92.10;;;;;;5044330;28;20136;-73
2022/12/25 12:18:21;;;;;;;12.60;6.07;;;9.60;92.10;;;;;;5025008;28;20261;-73
2022/12/25 12:21:00;;;;;;;14.43;5.63;;;9.60;92.20;;;;;;5055463;28;20050;-73
2022/12/25 12:23:30;;;;;;;11.65;5.70;;;9.60;92.20;;;;;;5039860;28;20573;-73
2022/12/25 12:25:58;;;;;;;10.68;5.38;;;9.60;92.10;;;;;;5043829;28;20058;-73
2022/12/25 12:28:28;;;;;;;10.80;4.87;;;9.60;92.20;;;;;;5034539;28;20048;-73
2022/12/25 12:31:01;;;;;;;8.88;5.07;;;9.60;92.20;;;;;;5059288;28;20442;-73
2022/12/25 12:33:34;;;;;;;10.63;4.97;;;9.70;92.20;;;;;;5063984;28;20132;-73
2022/12/25 12:36:03;;;;;;;10.52;5.35;;;9.60;92.20;;;;;;5026579;28;20136;-73
2022/12/25 12:38:32;;;;;;;10.18;4.65;;;9.70;92.20;;;;;;5029461;28;20108;-73
2022/12/25 12:41:01;;;;;;;12.43;5.00;;;9.70;92.20;;;;;;5044912;28;20054;-73
2022/12/25 12:43:33;;;;;;;10.32;4.70;;;9.70;92.20;;;;;;5008403;28;20334;-73
2022/12/25 12:46:08;;;;;;;9.38;4.95;;;9.70;92.20;;;;;;5031155;28;20152;-73
2022/12/25 12:48:41;;;;;;;12.57;5.28;;;9.70;92.10;;;;;;5033713;28;20081;-73
2022/12/25 12:51:11;;;;;;;10.63;4.82;;;9.70;92.20;;;;;;5047253;28;20141;-72
2022/12/25 12:53:41;;;;;;;8.73;4.73;;;9.70;92.20;;;;;;5026587;28;20096;-73
2022/12/25 12:56:16;;;;;;;11.10;5.50;;;9.70;92.20;;;;;;5031563;28;20249;-72
2022/12/25 12:58:49;;;;;;;12.00;5.38;;;9.70;92.20;;;;;;5082678;22;20578;-73
2022/12/25 13:01:37;;;;;;;11.60;4.95;;;9.70;92.20;;;;;;5039120;28;20045;-73
2022/12/25 13:04:34;;;;;;;10.27;5.03;;;9.70;92.20;;;;;;5040035;28;20060;-74
2022/12/25 13:07:10;;;;;;;12.53;5.30;;;9.70;92.20;;;;;;5024630;28;20139;-73
2022/12/25 13:09:52;;;;;;;11.25;5.20;;;9.70;92.20;;;;;;5039779;28;20287;-73
2022/12/25 13:12:22;;;;;;;11.65;5.55;;;9.70;92.20;;;;;;5049915;28;20057;-73
2022/12/25 13:14:50;;;;;;;10.60;5.25;;;9.70;92.20;;;;;;5051435;28;20049;-74
2022/12/25 13:17:20;;;;;;;11.88;4.70;;;9.80;92.20;;;;;;5046209;28;20144;-73
2022/12/25 13:19:48;;;;;;;11.67;4.83;;;9.80;92.10;;;;;;5033031;28;20691;-73
2022/12/25 13:22:24;;;;;;;10.95;5.05;;;9.80;92.20;;;;;;5030297;28;20276;-73
2022/12/25 13:25:01;;;;;;;12.07;5.35;;;9.80;92.20;;;;;;5048586;28;20045;-73
2022/12/25 13:27:31;;;;;;;9.75;4.57;;;9.80;92.10;;;;;;5027623;28;20057;-72
2022/12/25 13:29:59;;;;;;;10.55;5.07;;;9.80;92.10;;;;;;5051592;28;20064;-73
2022/12/25 13:32:29;;;;;;;9.47;5.10;;;9.80;92.10;;;;;;5049808;28;20075;-73
2022/12/25 13:34:58;;;;;;;10.30;4.78;;;9.80;92.10;;;;;;5046992;28;20294;-73
2022/12/25 13:37:28;;;;;;;9.55;4.82;;;9.80;92.00;;;;;;5039610;28;20163;-73
2022/12/25 13:39:58;;;;;;;12.05;5.10;;;9.80;92.00;;;;;;5033724;28;20049;-73
2022/12/25 13:42:30;;;;;;;12.13;5.13;;;9.80;92.00;;;;;;5031184;28;20136;-73
2022/12/25 13:45:00;;;;;;;9.73;5.30;;;9.80;92.00;;;;;;5041652;28;20522;-73
2022/12/25 13:47:31;;;;;;;11.15;5.45;;;9.80;92.00;;;;;;5011157;28;20261;-73
2022/12/25 13:50:02;;;;;;;11.38;5.70;;;9.80;92.00;;;;;;5029451;28;20046;-73
2022/12/25 13:52:34;;;;;;;11.15;5.53;;;9.80;92.00;;;;;;4999365;28;20078;-73
2022/12/25 13:55:03;;;;;;;10.98;5.85;;;9.80;92.00;;;;;;5037200;28;20052;-73
2022/12/25 13:57:37;;;;;;;12.67;6.50;;;9.80;91.90;;;;;;5024073;28;20121;-73
2022/12/25 14:00:06;;;;;;;14.38;6.15;;;9.80;91.90;;;;;;5016200;28;20377;-73
2022/12/25 14:02:36;;;;;;;11.50;5.95;;;9.80;91.90;;;;;;5032298;28;20045;-73
2022/12/25 14:05:04;;;;;;;14.80;6.38;;;9.80;91.90;;;;;;5063993;28;20147;-73
2022/12/25 14:07:33;;;;;;;11.95;5.63;;;9.80;91.90;;;;;;5044619;28;20046;-73
2022/12/25 14:10:02;;;;;;;12.17;6.53;;;9.80;91.80;;;;;;5053269;28;20058;-73
2022/12/25 14:12:31;;;;;;;13.48;6.53;;;9.70;91.80;;;;;;5026050;28;20256;-73
2022/12/25 14:15:00;;;;;;;11.25;5.95;;;9.80;91.80;;;;;;5052933;28;20049;-73
2022/12/25 14:17:28;;;;;;;19.15;6.82;;;9.80;91.80;;;;;;5042548;28;20050;-73
2022/12/25 14:20:00;;;;;;;11.60;6.88;;;9.80;91.80;;;;;;5050895;28;20059;-74
2022/12/25 14:22:28;;;;;;;12.60;6.80;;;9.70;91.80;;;;;;5048040;28;20073;-73
2022/12/25 14:24:56;;;;;;;10.85;7.13;;;9.70;91.80;;;;;;5048279;28;20291;-72
2022/12/25 14:27:25;;;;;;;13.88;8.68;;;9.70;91.70;;;;;;5049168;28;20137;-72
2022/12/25 14:29:55;;;;;;;21.55;12.50;;;9.70;91.70;;;;;;5027261;28;20125;-73
2022/12/25 14:32:27;;;;;;;15.82;8.73;;;9.70;91.80;;;;;;5047838;28;20046;-72
2022/12/25 14:34:58;;;;;;;13.17;7.43;;;9.70;91.70;;;;;;5035438;28;20144;-72
2022/12/25 14:37:28;;;;;;;14.23;7.82;;;9.70;91.80;;;;;;5034529;28;20299;-72
2022/12/25 14:39:57;;;;;;;14.48;8.20;;;9.70;91.80;;;;;;5013920;28;20052;-72
2022/12/25 14:42:27;;;;;;;11.02;6.85;;;9.60;91.80;;;;;;5029972;28;20128;-72
2022/12/25 14:45:03;;;;;;;12.60;6.97;;;9.70;91.80;;;;;;5036055;28;20048;-72
2022/12/25 14:47:38;;;;;;;13.43;7.33;;;9.70;91.80;;;;;;5036638;28;20446;-71
2022/12/25 14:50:24;;;;;;;12.90;7.38;;;9.60;91.80;;;;;;5050522;28;20763;-71
2022/12/25 14:52:51;;;;;;;11.10;7.68;;;9.60;91.80;;;;;;5056358;28;20061;-71
2022/12/25 14:55:21;;;;;;;14.77;8.40;;;9.60;91.80;;;;;;5060735;28;20063;-71